Nelma, Wisconsin
Current Conditions -  °F | °C
As of 2:15 PM on Sunday 23 Nov 2014 (Local Time) from KEGV Reporting Station
Moderate Fog Moderate Fog  
Wind Chill: 44°   Ceiling: 200
Heat Index: 44°   Visibility: 0.25mi
Dew Point: 44°   Wind: 3mph
Humidity: 100%   Direction: 160°SSE
Pressure: 29.42"   Gusts: NA
Location:  45.9186°N, 88.7601°W
Report Text: KEGV 232015Z AUTO 16003KT 1/4SM FG OVC002 07/07 A2942 RMK AO2 T00650065
Loading
Personal Weather Stations






























Interactive Weather Map New forecast layout! Learn more

10-Day Weather Forecast

Advertisements
Track Severe Weather on mobile